Time;durP1;ratioP1;P1;durP2;ratioP2;P2;SDS_P1;SDS_P2;PMS_P1;PMS_P2;Temp;Humidity;BMP_temperature;BMP_pressure;BME280_temperature;BME280_humidity;BME280_pressure;Samples;Min_cycle;Max_cycle;Signal;HPM_P1;HPM_P2
2022/08/17 00:00:44;;;;;;;0.40;0.40;;;19.90;99.90;;;;;;5037133;28;20044;-79
2022/08/17 00:03:17;;;;;;;0.40;0.40;;;19.90;99.90;;;;;;5018547;28;20568;-79
2022/08/17 00:05:59;;;;;;;0.30;0.30;;;19.90;99.90;;;;;;5019785;28;20076;-79
2022/08/17 00:08:30;;;;;;;0.40;0.40;;;19.90;99.90;;;;;;5033625;28;20053;-79
2022/08/17 00:10:57;;;;;;;0.40;0.40;;;19.90;99.90;;;;;;5035676;28;20041;-79
2022/08/17 00:13:33;;;;;;;0.40;0.40;;;19.90;99.90;;;;;;5035537;28;20462;-79
2022/08/17 00:16:03;;;;;;;0.40;0.40;;;19.90;99.90;;;;;;5036420;28;21086;-79
2022/08/17 00:18:30;;;;;;;0.40;0.40;;;19.90;99.90;;;;;;5034468;28;20128;-79
2022/08/17 00:20:57;;;;;;;0.30;0.30;;;19.90;99.90;;;;;;5021439;28;20638;-79
2022/08/17 00:23:24;;;;;;;0.30;0.30;;;19.80;99.90;;;;;;5022078;28;20102;-79
2022/08/17 00:25:50;;;;;;;0.35;0.35;;;19.80;99.90;;;;;;5041507;28;20078;-79
2022/08/17 00:28:17;;;;;;;0.40;0.40;;;19.70;99.90;;;;;;5037738;28;20120;-79
2022/08/17 00:30:45;;;;;;;0.30;0.30;;;19.70;99.90;;;;;;5038353;28;20059;-79
2022/08/17 00:33:15;;;;;;;0.30;0.30;;;19.60;99.90;;;;;;5036948;28;20076;-79
2022/08/17 00:35:41;;;;;;;0.40;0.40;;;19.50;99.90;;;;;;5036496;28;20064;-79
2022/08/17 00:38:11;;;;;;;0.30;0.30;;;19.50;99.90;;;;;;5035304;28;20066;-79
2022/08/17 00:40:40;;;;;;;0.40;0.40;;;19.50;99.90;;;;;;5020404;28;20054;-79
2022/08/17 00:43:14;;;;;;;0.40;0.40;;;19.50;99.90;;;;;;5038686;28;20048;-79
2022/08/17 00:45:40;;;;;;;;;;;19.50;99.90;;;;;;5019345;28;20556;-79
2022/08/17 00:48:05;;;;;;;0.40;0.40;;;19.30;99.90;;;;;;5036965;28;19925;-79
2022/08/17 00:50:31;;;;;;;0.40;0.40;;;19.30;99.90;;;;;;5035553;28;20052;-79
2022/08/17 00:52:58;;;;;;;0.47;0.47;;;19.30;99.90;;;;;;5036272;28;20049;-79
2022/08/17 00:55:25;;;;;;;0.30;0.30;;;19.10;99.90;;;;;;5037806;28;20136;-80
2022/08/17 00:57:55;;;;;;;0.40;0.40;;;19.10;99.90;;;;;;5037896;28;20049;-80
2022/08/17 01:00:25;;;;;;;0.30;0.30;;;18.90;99.90;;;;;;5036333;28;20052;-80
2022/08/17 01:03:02;;;;;;;0.40;0.40;;;19.00;99.90;;;;;;5036282;28;20052;-79
2022/08/17 01:05:30;;;;;;;0.50;0.43;;;18.90;99.90;;;;;;5036777;28;20044;-79
2022/08/17 01:07:58;;;;;;;0.40;0.40;;;18.90;99.90;;;;;;5037651;28;20129;-79
2022/08/17 01:10:44;;;;;;;0.35;0.35;;;18.90;99.90;;;;;;5035171;28;20055;-79
2022/08/17 01:13:10;;;;;;;0.40;0.40;;;19.00;99.90;;;;;;5032216;28;20045;-79
2022/08/17 01:15:40;;;;;;;0.40;0.40;;;19.00;99.90;;;;;;5016103;28;20047;-79
2022/08/17 01:18:10;;;;;;;0.40;0.40;;;19.00;99.90;;;;;;5035599;28;20047;-79
2022/08/17 01:20:45;;;;;;;0.50;0.40;;;18.90;99.90;;;;;;5034237;28;20037;-79
2022/08/17 01:23:11;;;;;;;0.98;0.40;;;19.00;99.90;;;;;;5029931;28;20060;-79
2022/08/17 01:25:38;;;;;;;0.30;0.30;;;18.90;99.90;;;;;;5029472;28;20408;-79
2022/08/17 01:28:05;;;;;;;0.30;0.30;;;19.00;99.90;;;;;;5032183;28;20072;-79
2022/08/17 01:30:31;;;;;;;0.45;0.45;;;19.00;99.90;;;;;;5032569;28;20090;-79
2022/08/17 01:32:57;;;;;;;0.40;0.40;;;18.90;99.90;;;;;;5038619;28;20072;-79
2022/08/17 01:35:23;;;;;;;0.40;0.40;;;19.00;99.90;;;;;;5038384;28;20149;-79
2022/08/17 01:37:49;;;;;;;0.30;0.30;;;19.00;99.90;;;;;;5015198;28;20083;-79
2022/08/17 01:40:51;;;;;;;0.30;0.30;;;19.00;99.90;;;;;;5037019;28;20048;-79
2022/08/17 01:43:26;;;;;;;0.30;0.30;;;19.00;99.90;;;;;;5001085;28;20115;-79
2022/08/17 01:45:55;;;;;;;0.40;0.40;;;18.90;99.90;;;;;;5036964;28;20216;-79
2022/08/17 01:48:22;;;;;;;0.50;0.50;;;18.90;99.90;;;;;;5017332;28;20052;-79
2022/08/17 01:50:50;;;;;;;0.40;0.40;;;18.90;99.90;;;;;;5032715;28;20171;-79
2022/08/17 01:53:24;;;;;;;0.30;0.30;;;18.80;99.90;;;;;;5031728;28;20072;-79
2022/08/17 01:55:57;;;;;;;0.30;0.30;;;18.90;99.90;;;;;;5011239;28;20056;-79
2022/08/17 01:58:23;;;;;;;0.55;0.40;;;19.00;99.90;;;;;;5033715;28;20049;-79
2022/08/17 02:00:51;;;;;;;0.40;0.40;;;19.00;99.90;;;;;;5017368;28;20048;-79
2022/08/17 02:03:22;;;;;;;0.40;0.40;;;19.10;99.90;;;;;;5030241;28;20059;-79
2022/08/17 02:05:49;;;;;;;0.40;0.40;;;19.10;99.90;;;;;;5036581;28;20045;-78
2022/08/17 02:08:16;;;;;;;0.40;0.40;;;19.00;99.90;;;;;;5014720;28;20106;-79
2022/08/17 02:10:44;;;;;;;0.30;0.30;;;19.10;99.90;;;;;;5031845;28;20045;-79
2022/08/17 02:13:10;;;;;;;0.40;0.40;;;19.20;99.90;;;;;;5035871;28;20129;-79
2022/08/17 02:15:36;;;;;;;0.40;0.40;;;19.20;99.90;;;;;;5033589;28;20053;-79
2022/08/17 02:18:03;;;;;;;0.35;0.35;;;19.20;99.90;;;;;;5032296;28;20041;-79
2022/08/17 02:20:30;;;;;;;0.40;0.40;;;19.20;99.90;;;;;;4994673;28;20426;-79
2022/08/17 02:22:57;;;;;;;0.40;0.40;;;19.20;99.90;;;;;;5031200;28;20565;-79
2022/08/17 02:25:22;;;;;;;0.40;0.40;;;19.30;99.90;;;;;;5000570;28;20048;-79
2022/08/17 02:27:48;;;;;;;0.40;0.40;;;19.20;99.90;;;;;;5034468;28;20106;-79
2022/08/17 02:30:15;;;;;;;0.30;0.30;;;19.20;99.90;;;;;;5031473;28;20036;-79
2022/08/17 02:32:41;;;;;;;0.30;0.30;;;19.10;99.90;;;;;;5032439;28;20107;-79
2022/08/17 02:35:07;;;;;;;0.40;0.40;;;19.10;99.90;;;;;;5032383;28;20836;-79
2022/08/17 02:37:34;;;;;;;0.30;0.30;;;19.10;99.90;;;;;;5035575;28;20115;-79
2022/08/17 02:39:59;;;;;;;0.30;0.30;;;19.10;99.90;;;;;;5031360;28;20052;-79
2022/08/17 02:42:38;;;;;;;0.40;0.40;;;19.10;99.90;;;;;;5034128;28;20045;-79
2022/08/17 02:45:07;;;;;;;0.40;0.40;;;19.20;99.90;;;;;;5013202;28;20052;-79
2022/08/17 02:47:33;;;;;;;0.40;0.40;;;19.20;99.90;;;;;;5032360;28;20815;-79
2022/08/17 02:49:59;;;;;;;0.40;0.40;;;19.20;99.90;;;;;;5030940;28;20052;-79
2022/08/17 02:52:26;;;;;;;0.30;0.30;;;19.20;99.90;;;;;;5031905;28;20064;-79
2022/08/17 02:54:52;;;;;;;0.30;0.30;;;19.20;99.90;;;;;;5034477;28;20063;-79
2022/08/17 02:57:18;;;;;;;0.40;0.40;;;19.20;99.90;;;;;;5013634;28;20702;-79
2022/08/17 02:59:44;;;;;;;0.30;0.30;;;19.20;99.90;;;;;;5015346;28;20064;-79
2022/08/17 03:02:11;;;;;;;0.30;0.30;;;19.20;99.90;;;;;;5030833;28;20052;-79
2022/08/17 03:04:37;;;;;;;0.40;0.40;;;19.20;99.90;;;;;;5012947;28;20198;-79
2022/08/17 03:07:04;;;;;;;0.40;0.40;;;19.30;99.90;;;;;;5033766;28;20045;-79
2022/08/17 03:09:30;;;;;;;0.40;0.40;;;19.20;99.90;;;;;;5030271;28;20041;-79
2022/08/17 03:12:08;;;;;;;0.30;0.30;;;19.20;99.90;;;;;;5034053;28;20056;-79
2022/08/17 03:14:37;;;;;;;0.30;0.30;;;19.30;99.90;;;;;;5032485;28;20488;-79
2022/08/17 03:17:03;;;;;;;0.32;0.32;;;19.30;99.90;;;;;;5032459;28;20429;-79
2022/08/17 03:19:29;;;;;;;0.38;0.38;;;19.30;99.90;;;;;;5031949;28;20060;-79
2022/08/17 03:21:57;;;;;;;0.38;0.38;;;19.30;99.90;;;;;;5029974;28;20049;-80
2022/08/17 03:24:23;;;;;;;0.38;0.38;;;19.30;99.90;;;;;;5038935;28;20048;-79
2022/08/17 03:26:48;;;;;;;0.40;0.40;;;19.30;99.90;;;;;;5034673;28;20581;-79
2022/08/17 03:29:17;;;;;;;0.40;0.40;;;19.20;99.90;;;;;;5031420;28;20072;-79
2022/08/17 03:31:46;;;;;;;0.65;0.63;;;19.30;99.90;;;;;;5027898;28;20048;-79
2022/08/17 03:34:13;;;;;;;0.40;0.40;;;19.30;99.90;;;;;;5034213;28;20809;-80
2022/08/17 03:36:39;;;;;;;0.40;0.40;;;19.30;99.90;;;;;;5034120;28;20473;-80
2022/08/17 03:39:05;;;;;;;0.50;0.50;;;19.40;99.90;;;;;;5028623;28;20164;-79
2022/08/17 03:41:31;;;;;;;0.30;0.30;;;19.30;99.90;;;;;;5030909;28;20056;-79
2022/08/17 03:43:57;;;;;;;0.40;0.40;;;19.30;99.90;;;;;;5032706;28;20052;-80
2022/08/17 03:57:22;;;;;;;0.40;0.40;;;19.10;99.90;;;;;;5036848;28;20056;-79
2022/08/17 03:59:48;;;;;;;0.40;0.40;;;19.20;99.90;;;;;;5031665;28;20509;-80
2022/08/17 04:02:31;;;;;;;0.40;0.40;;;19.10;99.90;;;;;;5010604;28;20063;-80
2022/08/17 04:04:58;;;;;;;0.30;0.30;;;19.20;99.90;;;;;;5029328;28;20144;-79
2022/08/17 04:07:26;;;;;;;0.30;0.30;;;19.10;99.90;;;;;;5011598;28;20083;-80
2022/08/17 04:09:52;;;;;;;0.30;0.30;;;19.20;99.90;;;;;;5033559;28;20490;-80
2022/08/17 04:12:20;;;;;;;0.35;0.35;;;19.20;99.90;;;;;;5028212;28;20107;-79
2022/08/17 04:14:46;;;;;;;0.30;0.30;;;19.20;99.90;;;;;;5035415;28;20044;-80
2022/08/17 04:17:12;;;;;;;0.32;0.32;;;19.20;99.90;;;;;;5032011;28;20794;-80
2022/08/17 04:19:38;;;;;;;0.38;0.38;;;19.30;99.90;;;;;;5030303;28;20053;-79
2022/08/17 04:22:04;;;;;;;0.30;0.30;;;19.30;99.90;;;;;;5023090;28;20501;-79
2022/08/17 04:24:31;;;;;;;0.30;0.30;;;19.30;99.90;;;;;;5026978;28;20062;-80
2022/08/17 04:26:57;;;;;;;0.30;0.30;;;19.30;99.90;;;;;;5031214;28;20607;-80
2022/08/17 04:29:24;;;;;;;0.32;0.32;;;19.30;99.90;;;;;;5016157;28;20148;-80
2022/08/17 04:31:52;;;;;;;0.30;0.30;;;19.30;99.90;;;;;;5034558;28;20049;-80
2022/08/17 04:34:18;;;;;;;0.30;0.30;;;19.40;99.90;;;;;;5032373;28;20111;-79
2022/08/17 04:36:44;;;;;;;0.40;0.40;;;19.40;99.90;;;;;;5030183;28;20047;-80
2022/08/17 04:39:10;;;;;;;0.38;0.38;;;19.50;99.90;;;;;;5010802;28;20660;-80
2022/08/17 04:44:20;;;;;;;0.40;0.40;;;19.50;99.90;;;;;;5034858;28;20057;-79
2022/08/17 04:46:46;;;;;;;0.50;0.50;;;19.50;99.90;;;;;;5017122;28;20064;-79
2022/08/17 04:49:12;;;;;;;0.57;0.47;;;19.50;99.90;;;;;;5035570;28;20055;-80
2022/08/17 04:51:44;;;;;;;0.30;0.30;;;19.60;99.90;;;;;;5035317;28;20387;-79
2022/08/17 04:54:13;;;;;;;0.40;0.40;;;19.60;99.90;;;;;;5033698;28;20041;-79
2022/08/17 04:56:39;;;;;;;0.30;0.30;;;19.60;99.90;;;;;;5013836;28;20047;-79
2022/08/17 04:59:08;;;;;;;0.30;0.30;;;19.70;99.90;;;;;;5031454;28;20041;-79
2022/08/17 05:01:36;;;;;;;0.38;0.38;;;19.60;99.90;;;;;;5037652;28;20774;-79
2022/08/17 05:04:05;;;;;;;0.30;0.30;;;19.60;99.90;;;;;;5033397;28;20520;-79
2022/08/17 05:06:31;;;;;;;0.30;0.30;;;19.60;99.90;;;;;;5032980;28;20500;-79
2022/08/17 05:08:58;;;;;;;0.30;0.30;;;19.70;99.90;;;;;;5032515;28;20555;-79
2022/08/17 05:11:25;;;;;;;0.30;0.30;;;19.70;99.90;;;;;;5016357;28;20065;-79
2022/08/17 05:13:52;;;;;;;0.30;0.30;;;19.70;99.90;;;;;;5036358;28;20048;-79
2022/08/17 05:16:19;;;;;;;0.30;0.30;;;19.70;99.90;;;;;;5015044;28;20505;-79
2022/08/17 05:18:46;;;;;;;0.35;0.32;;;19.80;99.90;;;;;;5033847;28;20047;-79
2022/08/17 05:21:12;;;;;;;0.50;0.38;;;19.70;99.90;;;;;;5034279;28;20509;-79
2022/08/17 05:23:39;;;;;;;0.30;0.30;;;19.80;99.90;;;;;;5038855;28;20063;-79
2022/08/17 05:26:05;;;;;;;0.40;0.40;;;19.80;99.90;;;;;;5032235;28;20052;-79
2022/08/17 05:28:31;;;;;;;0.30;0.30;;;19.70;99.90;;;;;;5033360;28;20057;-79
2022/08/17 05:31:00;;;;;;;0.30;0.30;;;19.70;99.90;;;;;;5034805;28;20080;-79
2022/08/17 05:33:28;;;;;;;0.40;0.40;;;19.70;99.90;;;;;;5038190;28;20053;-79
2022/08/17 05:35:56;;;;;;;0.40;0.40;;;19.70;99.90;;;;;;5030923;28;20079;-79
2022/08/17 05:38:24;;;;;;;0.40;0.40;;;19.60;99.90;;;;;;5014672;28;20072;-79
2022/08/17 05:40:50;;;;;;;0.30;0.30;;;19.60;99.90;;;;;;5034147;28;20483;-79
2022/08/17 05:43:20;;;;;;;0.30;0.30;;;19.60;99.90;;;;;;5031460;28;20529;-79
2022/08/17 05:45:51;;;;;;;0.30;0.30;;;19.60;99.90;;;;;;5035412;28;20044;-79
2022/08/17 05:48:17;;;;;;;0.50;0.50;;;19.60;99.90;;;;;;5033282;28;20037;-79
2022/08/17 05:51:18;;;;;;;0.30;0.30;;;19.60;99.90;;;;;;5035088;28;20068;-79
2022/08/17 05:53:59;;;;;;;0.35;0.35;;;19.60;99.90;;;;;;5007629;28;20645;-79
2022/08/17 05:57:03;;;;;;;0.30;0.30;;;19.70;99.90;;;;;;5035126;28;20102;-79
2022/08/17 05:59:33;;;;;;;0.40;0.40;;;19.70;99.90;;;;;;5034931;28;20052;-79
2022/08/17 06:02:21;;;;;;;0.30;0.30;;;19.70;99.90;;;;;;5037211;28;20055;-79
2022/08/17 06:05:01;;;;;;;0.32;0.32;;;19.70;99.90;;;;;;5034056;28;20079;-79
2022/08/17 06:07:35;;;;;;;0.40;0.40;;;19.70;99.90;;;;;;5037841;28;20044;-79
2022/08/17 06:10:15;;;;;;;0.40;0.40;;;19.70;99.90;;;;;;4996188;28;20139;-79
2022/08/17 06:13:04;;;;;;;0.30;0.30;;;19.80;99.90;;;;;;5035112;28;20040;-80
2022/08/17 06:15:44;;;;;;;0.30;0.30;;;19.80;99.90;;;;;;5037790;28;20197;-80
2022/08/17 06:18:11;;;;;;;0.30;0.30;;;19.90;99.90;;;;;;5035730;28;20781;-79
2022/08/17 06:20:59;;;;;;;0.30;0.30;;;20.00;99.90;;;;;;5037286;28;20202;-79
2022/08/17 06:23:44;;;;;;;0.30;0.30;;;20.00;99.90;;;;;;5035535;28;21571;-79
2022/08/17 06:26:15;;;;;;;0.30;0.30;;;20.10;99.90;;;;;;5028139;28;20476;-78
2022/08/17 06:28:50;;;;;;;0.30;0.30;;;20.10;99.90;;;;;;5039052;28;20083;-80
2022/08/17 06:31:26;;;;;;;0.40;0.40;;;20.20;99.90;;;;;;5014953;28;20091;-80
2022/08/17 06:33:53;;;;;;;0.43;0.43;;;20.30;99.90;;;;;;5037218;28;20045;-79
2022/08/17 06:36:28;;;;;;;0.30;0.30;;;20.20;99.90;;;;;;5035397;28;20518;-80
2022/08/17 06:39:21;;;;;;;0.30;0.30;;;20.30;99.90;;;;;;5035624;28;20538;-79
2022/08/17 06:42:09;;;;;;;0.35;0.35;;;20.40;99.90;;;;;;5038344;28;20056;-80
2022/08/17 06:44:50;;;;;;;0.30;0.30;;;20.40;99.90;;;;;;5036619;28;20113;-80
2022/08/17 06:47:35;;;;;;;0.40;0.40;;;20.30;99.90;;;;;;5036598;28;20152;-80
2022/08/17 06:50:06;;;;;;;0.30;0.30;;;20.50;99.90;;;;;;5033367;28;20084;-80
2022/08/17 06:52:38;;;;;;;0.30;0.30;;;20.50;99.90;;;;;;5031311;28;20850;-79
2022/08/17 06:55:09;;;;;;;0.30;0.30;;;20.70;99.90;;;;;;5028522;28;20508;-79
2022/08/17 06:57:40;;;;;;;0.30;0.30;;;20.80;99.90;;;;;;5034807;28;20733;-79
2022/08/17 07:00:11;;;;;;;0.30;0.30;;;21.00;99.90;;;;;;5034648;28;20070;-79
2022/08/17 07:02:47;;;;;;;0.30;0.30;;;21.10;99.90;;;;;;5034919;28;20490;-80
2022/08/17 07:05:17;;;;;;;0.30;0.30;;;21.30;99.90;;;;;;5032532;28;20731;-79
2022/08/17 07:08:00;;;;;;;0.40;0.40;;;21.50;99.90;;;;;;5031551;28;20078;-81
2022/08/17 07:10:28;;;;;;;0.30;0.30;;;21.50;99.90;;;;;;5035613;28;20079;-81
2022/08/17 07:13:00;;;;;;;0.30;0.30;;;21.60;99.90;;;;;;5031655;28;20053;-80
2022/08/17 07:15:36;;;;;;;0.32;0.32;;;21.80;99.90;;;;;;5034776;28;20060;-80
2022/08/17 07:18:02;;;;;;;0.30;0.30;;;21.80;99.90;;;;;;5032428;28;20041;-80
2022/08/17 07:20:30;;;;;;;0.30;0.30;;;22.30;99.90;;;;;;5032122;28;20048;-79
2022/08/17 07:23:33;;;;;;;0.30;0.30;;;22.50;99.90;;;;;;5036021;28;20117;-79
2022/08/17 07:26:06;;;;;;;0.30;0.30;;;22.90;99.90;;;;;;5003774;28;20063;-79
2022/08/17 07:28:33;;;;;;;0.30;0.30;;;23.30;99.90;;;;;;5031083;28;20056;-80
2022/08/17 07:30:59;;;;;;;0.30;0.30;;;23.20;99.90;;;;;;5030136;28;20521;-81
2022/08/17 07:33:31;;;;;;;0.30;0.30;;;23.30;99.90;;;;;;5013638;28;20055;-79
2022/08/17 07:35:58;;;;;;;0.30;0.30;;;23.10;99.90;;;;;;4997099;28;20064;-81
2022/08/17 07:38:29;;;;;;;0.30;0.30;;;22.90;99.90;;;;;;5031862;28;20048;-81
2022/08/17 07:41:03;;;;;;;0.30;0.30;;;22.70;99.90;;;;;;5030229;28;20044;-81
2022/08/17 07:43:40;;;;;;;0.30;0.30;;;22.60;99.90;;;;;;5031044;28;20048;-78
2022/08/17 07:49:08;;;;;;;0.30;0.30;;;22.80;99.90;;;;;;5025659;28;20163;-80
2022/08/17 07:51:39;;;;;;;0.30;0.30;;;23.00;99.90;;;;;;5028877;28;20143;-81
2022/08/17 07:54:14;;;;;;;0.30;0.30;;;23.10;99.90;;;;;;5029744;28;20081;-78
2022/08/17 07:56:45;;;;;;;0.68;0.40;;;23.40;99.90;;;;;;5030036;28;20045;-79
2022/08/17 07:59:17;;;;;;;0.30;0.30;;;23.40;99.90;;;;;;5029338;28;20077;-82
2022/08/17 08:02:20;;;;;;;0.30;0.30;;;23.30;99.90;;;;;;5014688;28;20045;-80
2022/08/17 08:04:57;;;;;;;0.30;0.30;;;23.40;99.90;;;;;;5023178;28;20064;-78
2022/08/17 08:07:28;;;;;;;0.30;0.30;;;23.50;99.90;;;;;;5002625;28;20061;-80
2022/08/17 08:10:03;;;;;;;0.30;0.30;;;23.30;99.90;;;;;;5021071;28;20073;-80
2022/08/17 08:12:28;;;;;;;0.30;0.30;;;23.50;99.90;;;;;;5028264;28;20194;-80
2022/08/17 08:14:58;;;;;;;0.30;0.30;;;23.30;99.90;;;;;;5027409;28;20158;-79
2022/08/17 08:17:33;;;;;;;0.30;0.30;;;23.30;99.90;;;;;;5013738;28;20073;-80
2022/08/17 08:19:59;;;;;;;0.30;0.30;;;23.40;99.90;;;;;;5034750;28;20587;-80
2022/08/17 08:22:35;;;;;;;0.30;0.30;;;23.50;99.90;;;;;;5035219;28;20056;-79
2022/08/17 08:25:15;;;;;;;0.30;0.30;;;23.40;99.90;;;;;;5023719;28;20123;-79
2022/08/17 08:27:52;;;;;;;0.30;0.30;;;23.40;99.90;;;;;;5030489;28;20049;-80
2022/08/17 08:30:20;;;;;;;0.30;0.30;;;23.40;99.90;;;;;;5028298;28;20079;-79
2022/08/17 08:33:24;;;;;;;0.30;0.30;;;23.50;99.90;;;;;;5033160;28;20474;-80
2022/08/17 08:36:01;;;;;;;0.30;0.30;;;23.40;99.90;;;;;;5011537;28;20049;-80
2022/08/17 08:38:35;;;;;;;0.30;0.30;;;23.40;99.90;;;;;;5034900;28;20568;-81
2022/08/17 08:41:43;;;;;;;0.30;0.30;;;23.40;99.90;;;;;;5010686;28;20063;-80
2022/08/17 08:44:48;;;;;;;0.30;0.30;;;23.40;99.90;;;;;;5014944;28;20059;-80
2022/08/17 08:48:09;;;;;;;0.30;0.30;;;23.40;99.90;;;;;;5035816;28;20053;-80
2022/08/17 08:50:54;;;;;;;0.30;0.30;;;23.40;99.90;;;;;;4990788;28;20106;-79
2022/08/17 08:53:41;;;;;;;0.30;0.30;;;23.50;99.90;;;;;;5013570;28;20061;-80
2022/08/17 08:56:23;;;;;;;0.40;0.40;;;23.70;99.90;;;;;;5040528;28;20041;-81
2022/08/17 08:58:53;;;;;;;0.30;0.30;;;23.70;99.90;;;;;;5035259;28;20055;-81
2022/08/17 09:01:35;;;;;;;0.30;0.30;;;23.50;99.90;;;;;;5029950;28;20056;-80
2022/08/17 09:04:27;;;;;;;0.30;0.30;;;23.70;99.90;;;;;;5034846;28;20053;-80
2022/08/17 09:07:08;;;;;;;0.30;0.30;;;23.90;99.90;;;;;;5013595;28;20271;-80
2022/08/17 09:10:07;;;;;;;0.30;0.30;;;24.00;99.90;;;;;;5031966;28;20053;-80
2022/08/17 09:12:46;;;;;;;0.20;0.20;;;24.10;99.90;;;;;;5035514;28;20056;-81
2022/08/17 09:15:26;;;;;;;0.30;0.30;;;24.00;99.90;;;;;;5036708;28;20061;-80
2022/08/17 09:18:00;;;;;;;0.30;0.30;;;24.00;99.90;;;;;;5037156;28;20045;-80
2022/08/17 09:20:32;;;;;;;0.30;0.30;;;24.00;99.90;;;;;;5012164;28;20073;-80
2022/08/17 09:23:06;;;;;;;0.30;0.30;;;24.00;99.90;;;;;;5037977;28;20053;-79
2022/08/17 09:25:48;;;;;;;0.30;0.30;;;24.30;99.90;;;;;;5016600;28;20061;-80
2022/08/17 09:28:32;;;;;;;0.30;0.30;;;24.80;99.90;;;;;;5032073;28;20110;-79
2022/08/17 09:31:05;;;;;;;0.30;0.30;;;25.10;99.90;;;;;;5026721;28;20111;-79
2022/08/17 09:33:35;;;;;;;0.30;0.30;;;25.20;99.90;;;;;;5030830;28;20076;-79
2022/08/17 09:36:37;;;;;;;0.30;0.30;;;25.10;99.90;;;;;;5015039;28;20524;-79
2022/08/17 09:39:15;;;;;;;0.30;0.30;;;25.00;99.90;;;;;;5033848;28;20040;-80
2022/08/17 09:42:12;;;;;;;0.30;0.30;;;24.90;99.90;;;;;;5032937;28;20060;-82
2022/08/17 09:44:47;;;;;;;0.30;0.30;;;24.80;99.90;;;;;;5013759;28;20045;-81
2022/08/17 09:47:29;;;;;;;0.30;0.30;;;24.70;99.90;;;;;;5015266;28;20058;-81
2022/08/17 09:50:22;;;;;;;0.30;0.30;;;25.00;99.90;;;;;;5027855;28;20053;-82
2022/08/17 09:52:55;;;;;;;0.30;0.30;;;25.10;99.90;;;;;;5003426;28;20059;-79
2022/08/17 09:55:37;;;;;;;0.30;0.30;;;25.20;99.90;;;;;;5014227;28;20048;-81
2022/08/17 09:58:28;;;;;;;0.30;0.30;;;25.30;99.90;;;;;;5014945;28;20514;-80
2022/08/17 10:01:07;;;;;;;0.30;0.30;;;24.80;99.90;;;;;;5033945;28;20117;-79
2022/08/17 10:03:42;;;;;;;0.30;0.30;;;25.30;99.90;;;;;;5037270;28;20132;-80
2022/08/17 10:06:19;;;;;;;0.40;0.40;;;25.40;99.90;;;;;;5031703;28;20426;-79
2022/08/17 10:09:07;;;;;;;0.30;0.30;;;25.40;99.90;;;;;;5013636;28;20049;-77
2022/08/17 10:14:51;;;;;;;0.30;0.30;;;25.40;99.90;;;;;;5041713;28;20067;-80
2022/08/17 10:17:31;;;;;;;0.30;0.30;;;25.40;99.90;;;;;;4979726;28;20060;-81
2022/08/17 10:20:06;;;;;;;0.30;0.30;;;25.20;99.90;;;;;;5029985;28;20041;-80
2022/08/17 10:28:27;;;;;;;0.30;0.30;;;25.50;99.90;;;;;;5002252;28;20053;-81
2022/08/17 10:30:58;;;;;;;0.32;0.32;;;25.50;99.90;;;;;;5032983;28;20077;-81
2022/08/17 10:34:05;;;;;;;0.30;0.30;;;25.60;99.90;;;;;;5031791;28;20056;-80
2022/08/17 10:36:46;;;;;;;0.30;0.30;;;25.70;99.90;;;;;;4950853;28;20115;-80
2022/08/17 10:39:44;;;;;;;0.30;0.30;;;25.80;99.90;;;;;;5014935;28;20056;-80
2022/08/17 10:42:25;;;;;;;0.30;0.30;;;26.00;99.90;;;;;;5030444;28;20044;-81
2022/08/17 10:44:59;;;;;;;0.30;0.30;;;26.50;99.90;;;;;;5032114;28;20057;-81
2022/08/17 10:47:52;;;;;;;0.50;0.50;;;26.70;99.90;;;;;;4996392;28;20702;-79
2022/08/17 10:50:46;;;;;;;0.40;0.40;;;27.10;99.90;;;;;;5030300;28;20747;-81
2022/08/17 10:53:30;;;;;;;0.40;0.40;;;27.10;99.90;;;;;;5033336;28;20109;-80
2022/08/17 10:56:11;;;;;;;0.30;0.30;;;27.00;99.90;;;;;;5015274;28;20045;-80
2022/08/17 10:58:58;;;;;;;0.30;0.30;;;27.60;99.90;;;;;;5033139;28;21278;-80
2022/08/17 11:01:33;;;;;;;0.30;0.30;;;27.90;99.90;;;;;;5013274;28;20048;-79
2022/08/17 11:04:21;;;;;;;0.30;0.30;;;28.10;99.90;;;;;;5012249;28;20512;-80
2022/08/17 11:07:09;;;;;;;0.30;0.30;;;27.30;99.90;;;;;;5015112;28;20044;-81
2022/08/17 11:09:46;;;;;;;0.30;0.30;;;27.30;99.90;;;;;;5027807;28;20055;-81
2022/08/17 11:12:24;;;;;;;0.20;0.20;;;27.40;99.90;;;;;;5032407;28;20092;-80
2022/08/17 11:15:12;;;;;;;0.30;0.30;;;26.90;99.90;;;;;;5031712;28;20048;-81
2022/08/17 11:18:16;;;;;;;0.30;0.30;;;26.50;99.90;;;;;;5014099;28;20048;-80
2022/08/17 11:21:03;;;;;;;0.30;0.30;;;26.40;99.90;;;;;;5013105;28;20057;-80
2022/08/17 11:23:54;;;;;;;0.20;0.20;;;26.30;99.90;;;;;;5013925;28;20206;-80
2022/08/17 11:26:28;;;;;;;0.30;0.30;;;26.40;99.90;;;;;;5029811;28;20083;-80
2022/08/17 11:29:00;;;;;;;0.30;0.30;;;26.20;99.90;;;;;;5015468;28;20079;-81
2022/08/17 11:31:34;;;;;;;0.30;0.30;;;26.00;99.90;;;;;;5029886;28;20044;-80
2022/08/17 11:34:03;;;;;;;0.30;0.30;;;26.00;99.90;;;;;;5011679;28;20667;-79
2022/08/17 11:36:32;;;;;;;0.20;0.20;;;25.90;99.90;;;;;;5026865;28;20438;-81
2022/08/17 11:39:34;;;;;;;0.30;0.30;;;26.20;99.90;;;;;;5009974;28;20482;-80
2022/08/17 11:42:45;;;;;;;0.30;0.30;;;26.00;99.90;;;;;;5011954;28;20072;-81
2022/08/17 11:45:25;;;;;;;0.30;0.30;;;25.90;99.90;;;;;;5015373;28;20576;-80
2022/08/17 11:54:35;;;;;;;0.30;0.30;;;25.60;99.90;;;;;;4985777;28;20077;-80
2022/08/17 11:57:28;;;;;;;0.30;0.30;;;25.60;99.90;;;;;;4967662;28;20060;-80
2022/08/17 12:00:12;;;;;;;0.35;0.35;;;25.70;99.90;;;;;;4987348;28;20466;-79
2022/08/17 12:02:44;;;;;;;0.40;0.40;;;25.60;99.90;;;;;;5006760;28;20084;-80
2022/08/17 12:05:16;;;;;;;0.30;0.30;;;25.70;99.90;;;;;;4988982;28;20052;-81
2022/08/17 12:08:03;;;;;;;0.30;0.30;;;25.60;99.90;;;;;;4993182;28;20103;-79
2022/08/17 12:10:33;;;;;;;0.30;0.30;;;25.60;99.90;;;;;;5009697;28;20050;-79
2022/08/17 12:13:05;;;;;;;0.40;0.40;;;25.60;99.90;;;;;;5007680;28;20061;-80
2022/08/17 12:15:36;;;;;;;0.30;0.30;;;25.60;99.90;;;;;;4991293;28;20725;-80
2022/08/17 12:18:02;;;;;;;0.30;0.30;;;25.70;99.90;;;;;;4993173;28;22847;-79
2022/08/17 12:20:29;;;;;;;0.30;0.30;;;25.50;99.90;;;;;;5010478;28;20165;-81
2022/08/17 12:23:18;;;;;;;0.30;0.30;;;25.70;99.90;;;;;;4992315;28;20049;-79
2022/08/17 12:25:48;;;;;;;0.40;0.40;;;25.80;99.90;;;;;;4991716;28;21052;-80
2022/08/17 12:28:35;;;;;;;0.32;0.32;;;25.90;99.90;;;;;;4995616;28;20731;-80
2022/08/17 12:31:05;;;;;;;0.30;0.30;;;25.90;99.90;;;;;;4991757;28;20050;-79
2022/08/17 12:33:31;;;;;;;0.30;0.30;;;25.90;99.90;;;;;;4990733;28;20041;-80
2022/08/17 12:36:01;;;;;;;0.30;0.30;;;25.80;99.90;;;;;;5009696;28;20494;-80
2022/08/17 12:38:30;;;;;;;0.30;0.30;;;25.90;99.90;;;;;;4987746;28;20054;-80
2022/08/17 12:40:57;;;;;;;0.30;0.30;;;25.80;99.90;;;;;;4993510;28;20140;-80
2022/08/17 12:43:29;;;;;;;0.30;0.30;;;25.80;99.90;;;;;;4988678;28;20050;-80
2022/08/17 12:46:00;;;;;;;0.30;0.30;;;25.80;99.90;;;;;;4990374;28;20119;-79
2022/08/17 12:48:28;;;;;;;0.40;0.35;;;25.80;99.90;;;;;;4991963;28;20046;-80
2022/08/17 12:51:06;;;;;;;0.30;0.30;;;25.70;99.90;;;;;;4994966;28;20057;-80
2022/08/17 12:53:35;;;;;;;1.35;0.80;;;25.80;99.90;;;;;;4973348;28;20108;-79
2022/08/17 12:56:14;;;;;;;0.40;0.40;;;25.90;99.90;;;;;;4996801;28;20805;-80
2022/08/17 12:58:52;;;;;;;0.30;0.30;;;26.00;99.90;;;;;;4999277;28;20042;-78
2022/08/17 13:01:19;;;;;;;0.30;0.30;;;26.10;99.90;;;;;;4999988;28;20045;-78
2022/08/17 13:03:49;;;;;;;0.30;0.30;;;26.00;99.90;;;;;;5003765;28;20113;-79
2022/08/17 13:06:29;;;;;;;0.30;0.30;;;25.90;99.90;;;;;;5007475;28;20053;-80
2022/08/17 13:08:55;;;;;;;0.30;0.30;;;25.80;99.90;;;;;;5003380;28;20533;-79
2022/08/17 13:11:23;;;;;;;0.30;0.30;;;25.70;99.90;;;;;;4997019;28;20629;-80
2022/08/17 13:13:54;;;;;;;0.30;0.30;;;25.80;99.90;;;;;;5016091;28;20045;-79
2022/08/17 13:16:29;;;;;;;0.30;0.30;;;25.80;99.90;;;;;;5018874;28;21012;-79
2022/08/17 13:19:20;;;;;;;0.40;0.40;;;25.80;99.90;;;;;;4993451;28;20108;-79
2022/08/17 13:21:58;;;;;;;0.30;0.30;;;25.90;99.90;;;;;;5004511;28;20052;-79
2022/08/17 13:24:31;;;;;;;0.30;0.30;;;25.90;99.90;;;;;;5005889;28;20097;-79
2022/08/17 13:27:08;;;;;;;0.38;0.38;;;25.90;99.90;;;;;;5022715;28;20088;-81
2022/08/17 13:29:47;;;;;;;0.30;0.30;;;25.90;99.90;;;;;;4997251;28;20136;-80
2022/08/17 13:32:31;;;;;;;0.30;0.30;;;25.70;99.90;;;;;;4996440;28;20139;-79
2022/08/17 13:35:01;;;;;;;0.40;0.40;;;25.40;99.90;;;;;;5002669;28;20041;-79
2022/08/17 13:37:31;;;;;;;0.38;0.38;;;25.50;99.90;;;;;;5002114;28;20525;-81
2022/08/17 13:40:09;;;;;;;0.30;0.30;;;25.40;99.90;;;;;;5019953;28;20050;-79
2022/08/17 13:42:46;;;;;;;0.30;0.30;;;25.20;99.90;;;;;;5008638;28;20050;-80
2022/08/17 13:45:30;;;;;;;0.30;0.30;;;25.10;99.90;;;;;;5021541;28;20060;-80
2022/08/17 13:48:13;;;;;;;0.30;0.30;;;24.90;99.90;;;;;;5007069;28;20052;-79
2022/08/17 13:50:58;;;;;;;0.40;0.40;;;24.80;99.90;;;;;;5016761;28;20081;-79
2022/08/17 13:53:24;;;;;;;0.30;0.30;;;24.70;99.90;;;;;;5006775;28;20550;-80
2022/08/17 13:56:02;;;;;;;0.40;0.40;;;24.60;99.90;;;;;;4993026;28;20053;-79